sensor_id;sensor_type;location;lat;lon;timestamp;P1;durP1;ratioP1;P2;durP2;ratioP2
66487;SDS011;53304;54.550;18.526;2023-05-24T00:00:41;5.13;;;3.10;;
66487;SDS011;53304;54.550;18.526;2023-05-24T00:03:07;4.80;;;3.08;;
66487;SDS011;53304;54.550;18.526;2023-05-24T00:05:35;5.13;;;3.00;;
66487;SDS011;53304;54.550;18.526;2023-05-24T00:08:05;5.53;;;3.28;;
66487;SDS011;53304;54.550;18.526;2023-05-24T00:10:33;6.00;;;3.40;;
66487;SDS011;53304;54.550;18.526;2023-05-24T00:12:58;5.10;;;3.10;;
66487;SDS011;53304;54.550;18.526;2023-05-24T00:15:26;5.13;;;2.90;;
66487;SDS011;53304;54.550;18.526;2023-05-24T00:17:51;5.38;;;3.38;;
66487;SDS011;53304;54.550;18.526;2023-05-24T00:20:19;5.65;;;3.30;;
66487;SDS011;53304;54.550;18.526;2023-05-24T00:22:45;6.38;;;3.45;;
66487;SDS011;53304;54.550;18.526;2023-05-24T00:25:12;5.18;;;2.85;;
66487;SDS011;53304;54.550;18.526;2023-05-24T00:27:42;4.75;;;2.85;;
66487;SDS011;53304;54.550;18.526;2023-05-24T00:30:14;5.72;;;3.25;;
66487;SDS011;53304;54.550;18.526;2023-05-24T00:32:42;6.18;;;3.15;;
66487;SDS011;53304;54.550;18.526;2023-05-24T00:35:08;4.40;;;2.78;;
66487;SDS011;53304;54.550;18.526;2023-05-24T00:37:34;5.22;;;3.40;;
66487;SDS011;53304;54.550;18.526;2023-05-24T00:40:09;5.10;;;3.20;;
66487;SDS011;53304;54.550;18.526;2023-05-24T00:42:37;4.93;;;3.00;;
66487;SDS011;53304;54.550;18.526;2023-05-24T00:45:03;5.05;;;2.97;;
66487;SDS011;53304;54.550;18.526;2023-05-24T00:47:29;5.97;;;3.33;;
66487;SDS011;53304;54.550;18.526;2023-05-24T00:49:54;6.05;;;3.40;;
66487;SDS011;53304;54.550;18.526;2023-05-24T00:52:20;5.97;;;3.50;;
66487;SDS011;53304;54.550;18.526;2023-05-24T00:54:45;5.30;;;3.28;;
66487;SDS011;53304;54.550;18.526;2023-05-24T00:57:11;5.38;;;3.40;;
66487;SDS011;53304;54.550;18.526;2023-05-24T00:59:39;4.97;;;3.17;;
66487;SDS011;53304;54.550;18.526;2023-05-24T01:02:08;4.70;;;3.15;;
66487;SDS011;53304;54.550;18.526;2023-05-24T01:04:36;5.97;;;3.30;;
66487;SDS011;53304;54.550;18.526;2023-05-24T01:15:48;5.15;;;3.08;;
66487;SDS011;53304;54.550;18.526;2023-05-24T01:18:26;6.50;;;3.20;;
66487;SDS011;53304;54.550;18.526;2023-05-24T01:21:15;4.93;;;2.92;;
66487;SDS011;53304;54.550;18.526;2023-05-24T01:26:51;6.63;;;3.17;;
66487;SDS011;53304;54.550;18.526;2023-05-24T01:29:32;5.22;;;3.00;;
66487;SDS011;53304;54.550;18.526;2023-05-24T01:31:58;5.97;;;3.40;;
66487;SDS011;53304;54.550;18.526;2023-05-24T01:34:25;5.15;;;3.13;;
66487;SDS011;53304;54.550;18.526;2023-05-24T01:36:50;6.85;;;3.10;;
66487;SDS011;53304;54.550;18.526;2023-05-24T01:39:16;6.00;;;3.20;;
66487;SDS011;53304;54.550;18.526;2023-05-24T01:44:41;4.18;;;2.70;;
66487;SDS011;53304;54.550;18.526;2023-05-24T01:49:41;6.43;;;3.50;;
66487;SDS011;53304;54.550;18.526;2023-05-24T01:52:14;4.82;;;2.75;;
66487;SDS011;53304;54.550;18.526;2023-05-24T01:54:43;5.25;;;3.30;;
66487;SDS011;53304;54.550;18.526;2023-05-24T01:57:11;6.40;;;3.17;;
66487;SDS011;53304;54.550;18.526;2023-05-24T01:59:39;5.85;;;3.30;;
66487;SDS011;53304;54.550;18.526;2023-05-24T02:02:06;5.55;;;2.97;;
66487;SDS011;53304;54.550;18.526;2023-05-24T02:04:31;4.55;;;3.00;;
66487;SDS011;53304;54.550;18.526;2023-05-24T02:06:57;5.35;;;3.10;;
66487;SDS011;53304;54.550;18.526;2023-05-24T02:09:22;5.13;;;3.30;;
66487;SDS011;53304;54.550;18.526;2023-05-24T02:11:50;5.60;;;3.13;;
66487;SDS011;53304;54.550;18.526;2023-05-24T02:14:15;4.38;;;2.88;;
66487;SDS011;53304;54.550;18.526;2023-05-24T02:16:44;4.53;;;3.28;;
66487;SDS011;53304;54.550;18.526;2023-05-24T02:19:11;5.97;;;3.40;;
66487;SDS011;53304;54.550;18.526;2023-05-24T02:21:39;4.40;;;2.83;;
66487;SDS011;53304;54.550;18.526;2023-05-24T02:24:05;4.85;;;3.03;;
66487;SDS011;53304;54.550;18.526;2023-05-24T02:26:35;5.53;;;3.20;;
66487;SDS011;53304;54.550;18.526;2023-05-24T02:29:01;4.93;;;3.15;;
66487;SDS011;53304;54.550;18.526;2023-05-24T02:31:29;6.57;;;3.45;;
66487;SDS011;53304;54.550;18.526;2023-05-24T02:33:57;4.80;;;3.15;;
66487;SDS011;53304;54.550;18.526;2023-05-24T02:36:25;4.72;;;3.30;;
66487;SDS011;53304;54.550;18.526;2023-05-24T02:38:51;4.78;;;2.90;;
66487;SDS011;53304;54.550;18.526;2023-05-24T02:41:17;6.47;;;3.38;;
66487;SDS011;53304;54.550;18.526;2023-05-24T02:43:45;7.18;;;3.45;;
66487;SDS011;53304;54.550;18.526;2023-05-24T02:46:11;6.03;;;3.30;;
66487;SDS011;53304;54.550;18.526;2023-05-24T02:48:37;5.85;;;3.45;;
66487;SDS011;53304;54.550;18.526;2023-05-24T02:51:03;6.15;;;3.20;;
66487;SDS011;53304;54.550;18.526;2023-05-24T02:53:28;7.63;;;3.55;;
66487;SDS011;53304;54.550;18.526;2023-05-24T02:55:59;5.47;;;3.08;;
66487;SDS011;53304;54.550;18.526;2023-05-24T02:58:24;5.72;;;3.25;;
66487;SDS011;53304;54.550;18.526;2023-05-24T03:00:53;5.85;;;3.13;;
66487;SDS011;53304;54.550;18.526;2023-05-24T03:03:21;4.38;;;3.08;;
66487;SDS011;53304;54.550;18.526;2023-05-24T03:05:51;5.07;;;3.30;;
66487;SDS011;53304;54.550;18.526;2023-05-24T03:08:19;5.43;;;3.53;;
66487;SDS011;53304;54.550;18.526;2023-05-24T03:10:44;6.82;;;3.45;;
66487;SDS011;53304;54.550;18.526;2023-05-24T03:13:09;5.85;;;3.42;;
66487;SDS011;53304;54.550;18.526;2023-05-24T03:15:37;5.50;;;3.40;;
66487;SDS011;53304;54.550;18.526;2023-05-24T03:18:08;5.80;;;3.05;;
66487;SDS011;53304;54.550;18.526;2023-05-24T03:20:33;6.68;;;3.05;;
66487;SDS011;53304;54.550;18.526;2023-05-24T03:23:03;5.75;;;3.22;;
66487;SDS011;53304;54.550;18.526;2023-05-24T03:25:29;6.50;;;3.30;;
66487;SDS011;53304;54.550;18.526;2023-05-24T03:27:54;5.25;;;3.60;;
66487;SDS011;53304;54.550;18.526;2023-05-24T03:30:19;5.38;;;3.20;;
66487;SDS011;53304;54.550;18.526;2023-05-24T03:32:45;5.72;;;3.20;;
66487;SDS011;53304;54.550;18.526;2023-05-24T03:35:10;4.43;;;3.17;;
66487;SDS011;53304;54.550;18.526;2023-05-24T03:37:36;5.15;;;3.45;;
66487;SDS011;53304;54.550;18.526;2023-05-24T03:40:02;5.70;;;3.47;;
66487;SDS011;53304;54.550;18.526;2023-05-24T03:42:31;5.75;;;3.50;;
66487;SDS011;53304;54.550;18.526;2023-05-24T03:44:57;6.03;;;3.60;;
66487;SDS011;53304;54.550;18.526;2023-05-24T03:47:22;5.70;;;3.60;;
66487;SDS011;53304;54.550;18.526;2023-05-24T03:49:48;6.05;;;3.55;;
66487;SDS011;53304;54.550;18.526;2023-05-24T03:52:15;4.90;;;3.30;;
66487;SDS011;53304;54.550;18.526;2023-05-24T03:54:41;4.82;;;3.40;;
66487;SDS011;53304;54.550;18.526;2023-05-24T03:57:06;6.22;;;3.50;;
66487;SDS011;53304;54.550;18.526;2023-05-24T03:59:34;5.95;;;3.35;;
66487;SDS011;53304;54.550;18.526;2023-05-24T04:02:01;4.80;;;3.20;;
66487;SDS011;53304;54.550;18.526;2023-05-24T04:04:27;4.60;;;3.20;;
66487;SDS011;53304;54.550;18.526;2023-05-24T04:06:52;5.13;;;3.53;;
66487;SDS011;53304;54.550;18.526;2023-05-24T04:09:21;6.30;;;3.40;;
66487;SDS011;53304;54.550;18.526;2023-05-24T04:11:47;5.45;;;3.53;;
66487;SDS011;53304;54.550;18.526;2023-05-24T04:14:15;5.55;;;3.30;;
66487;SDS011;53304;54.550;18.526;2023-05-24T04:16:40;5.82;;;3.53;;
66487;SDS011;53304;54.550;18.526;2023-05-24T04:19:11;5.35;;;3.60;;
66487;SDS011;53304;54.550;18.526;2023-05-24T04:21:38;7.60;;;3.72;;
66487;SDS011;53304;54.550;18.526;2023-05-24T04:24:06;9.00;;;3.72;;
66487;SDS011;53304;54.550;18.526;2023-05-24T04:26:34;5.63;;;3.42;;
66487;SDS011;53304;54.550;18.526;2023-05-24T04:29:02;5.97;;;3.53;;
66487;SDS011;53304;54.550;18.526;2023-05-24T04:31:28;5.50;;;3.30;;
66487;SDS011;53304;54.550;18.526;2023-05-24T04:33:55;5.20;;;3.30;;
66487;SDS011;53304;54.550;18.526;2023-05-24T04:36:22;5.93;;;3.60;;
66487;SDS011;53304;54.550;18.526;2023-05-24T04:38:49;6.18;;;3.28;;
66487;SDS011;53304;54.550;18.526;2023-05-24T04:41:17;6.25;;;3.40;;
66487;SDS011;53304;54.550;18.526;2023-05-24T04:43:46;6.25;;;3.55;;
66487;SDS011;53304;54.550;18.526;2023-05-24T04:46:14;5.07;;;3.40;;
66487;SDS011;53304;54.550;18.526;2023-05-24T04:48:42;6.80;;;3.45;;
66487;SDS011;53304;54.550;18.526;2023-05-24T04:51:10;8.00;;;3.70;;
66487;SDS011;53304;54.550;18.526;2023-05-24T04:53:35;5.40;;;3.47;;
66487;SDS011;53304;54.550;18.526;2023-05-24T04:56:01;6.05;;;3.33;;
66487;SDS011;53304;54.550;18.526;2023-05-24T04:58:28;6.97;;;3.35;;
66487;SDS011;53304;54.550;18.526;2023-05-24T05:00:59;7.15;;;3.63;;
66487;SDS011;53304;54.550;18.526;2023-05-24T05:03:26;7.57;;;3.35;;
66487;SDS011;53304;54.550;18.526;2023-05-24T05:05:51;6.60;;;3.70;;
66487;SDS011;53304;54.550;18.526;2023-05-24T05:08:19;7.38;;;3.50;;
66487;SDS011;53304;54.550;18.526;2023-05-24T05:10:44;5.47;;;3.38;;
66487;SDS011;53304;54.550;18.526;2023-05-24T05:13:10;7.30;;;3.42;;
66487;SDS011;53304;54.550;18.526;2023-05-24T05:15:40;7.90;;;3.60;;
66487;SDS011;53304;54.550;18.526;2023-05-24T05:18:11;7.78;;;3.38;;
66487;SDS011;53304;54.550;18.526;2023-05-24T05:20:36;5.28;;;3.28;;
66487;SDS011;53304;54.550;18.526;2023-05-24T05:23:02;6.38;;;3.60;;
66487;SDS011;53304;54.550;18.526;2023-05-24T05:25:27;6.40;;;3.67;;
66487;SDS011;53304;54.550;18.526;2023-05-24T05:27:54;8.68;;;3.80;;
66487;SDS011;53304;54.550;18.526;2023-05-24T05:30:20;6.72;;;3.60;;
66487;SDS011;53304;54.550;18.526;2023-05-24T05:32:48;8.23;;;3.65;;
66487;SDS011;53304;54.550;18.526;2023-05-24T05:35:13;10.95;;;4.03;;
66487;SDS011;53304;54.550;18.526;2023-05-24T05:37:41;7.30;;;3.90;;
66487;SDS011;53304;54.550;18.526;2023-05-24T05:40:06;9.60;;;4.50;;
66487;SDS011;53304;54.550;18.526;2023-05-24T05:42:32;17.02;;;5.13;;
66487;SDS011;53304;54.550;18.526;2023-05-24T05:44:58;16.25;;;4.80;;
66487;SDS011;53304;54.550;18.526;2023-05-24T05:47:23;12.07;;;4.35;;
66487;SDS011;53304;54.550;18.526;2023-05-24T05:49:51;10.02;;;4.30;;
66487;SDS011;53304;54.550;18.526;2023-05-24T05:52:19;13.48;;;4.80;;
66487;SDS011;53304;54.550;18.526;2023-05-24T05:54:44;10.68;;;4.30;;
66487;SDS011;53304;54.550;18.526;2023-05-24T05:57:10;14.20;;;4.47;;
66487;SDS011;53304;54.550;18.526;2023-05-24T05:59:37;12.35;;;4.82;;
66487;SDS011;53304;54.550;18.526;2023-05-24T06:02:03;11.32;;;4.70;;
66487;SDS011;53304;54.550;18.526;2023-05-24T06:04:29;16.73;;;4.97;;
66487;SDS011;53304;54.550;18.526;2023-05-24T06:06:57;12.80;;;5.10;;
66487;SDS011;53304;54.550;18.526;2023-05-24T06:09:23;11.35;;;4.43;;
66487;SDS011;53304;54.550;18.526;2023-05-24T06:11:48;9.02;;;4.07;;
66487;SDS011;53304;54.550;18.526;2023-05-24T06:14:14;7.95;;;4.20;;
66487;SDS011;53304;54.550;18.526;2023-05-24T06:16:43;10.73;;;4.53;;
66487;SDS011;53304;54.550;18.526;2023-05-24T06:19:12;8.98;;;4.20;;
66487;SDS011;53304;54.550;18.526;2023-05-24T06:21:38;9.15;;;4.07;;
66487;SDS011;53304;54.550;18.526;2023-05-24T06:24:05;12.23;;;4.45;;
66487;SDS011;53304;54.550;18.526;2023-05-24T06:26:34;9.57;;;4.60;;
66487;SDS011;53304;54.550;18.526;2023-05-24T06:29:01;9.88;;;4.47;;
66487;SDS011;53304;54.550;18.526;2023-05-24T06:31:26;9.68;;;4.30;;
66487;SDS011;53304;54.550;18.526;2023-05-24T06:33:54;8.57;;;4.30;;
66487;SDS011;53304;54.550;18.526;2023-05-24T06:36:20;6.82;;;4.03;;
66487;SDS011;53304;54.550;18.526;2023-05-24T06:38:45;9.02;;;4.32;;
66487;SDS011;53304;54.550;18.526;2023-05-24T06:41:11;7.43;;;3.97;;
66487;SDS011;53304;54.550;18.526;2023-05-24T06:43:36;9.45;;;4.28;;
66487;SDS011;53304;54.550;18.526;2023-05-24T06:46:06;8.80;;;4.30;;
66487;SDS011;53304;54.550;18.526;2023-05-24T06:48:34;8.45;;;4.22;;
66487;SDS011;53304;54.550;18.526;2023-05-24T06:51:02;6.90;;;3.95;;
66487;SDS011;53304;54.550;18.526;2023-05-24T06:53:31;7.40;;;3.92;;
66487;SDS011;53304;54.550;18.526;2023-05-24T06:55:56;6.80;;;4.10;;
66487;SDS011;53304;54.550;18.526;2023-05-24T06:58:22;8.43;;;4.28;;
66487;SDS011;53304;54.550;18.526;2023-05-24T07:00:49;8.82;;;4.30;;
66487;SDS011;53304;54.550;18.526;2023-05-24T07:03:17;8.00;;;3.85;;
66487;SDS011;53304;54.550;18.526;2023-05-24T07:05:45;8.32;;;4.18;;
66487;SDS011;53304;54.550;18.526;2023-05-24T07:08:11;9.00;;;4.30;;
66487;SDS011;53304;54.550;18.526;2023-05-24T07:10:36;7.03;;;3.70;;
66487;SDS011;53304;54.550;18.526;2023-05-24T07:13:06;7.35;;;4.28;;
66487;SDS011;53304;54.550;18.526;2023-05-24T07:15:39;9.95;;;4.18;;
66487;SDS011;53304;54.550;18.526;2023-05-24T07:18:05;10.07;;;5.03;;
66487;SDS011;53304;54.550;18.526;2023-05-24T07:20:31;11.13;;;4.30;;
66487;SDS011;53304;54.550;18.526;2023-05-24T07:22:57;6.97;;;4.05;;
66487;SDS011;53304;54.550;18.526;2023-05-24T07:25:26;8.57;;;4.20;;
66487;SDS011;53304;54.550;18.526;2023-05-24T07:27:52;10.82;;;4.18;;
66487;SDS011;53304;54.550;18.526;2023-05-24T07:30:20;10.07;;;4.63;;
66487;SDS011;53304;54.550;18.526;2023-05-24T07:32:48;8.02;;;4.10;;
66487;SDS011;53304;54.550;18.526;2023-05-24T07:35:16;8.38;;;4.50;;
66487;SDS011;53304;54.550;18.526;2023-05-24T07:37:46;6.78;;;3.97;;
66487;SDS011;53304;54.550;18.526;2023-05-24T07:40:12;7.18;;;4.07;;
66487;SDS011;53304;54.550;18.526;2023-05-24T07:42:40;12.35;;;5.05;;
66487;SDS011;53304;54.550;18.526;2023-05-24T07:45:06;7.65;;;4.10;;
66487;SDS011;53304;54.550;18.526;2023-05-24T07:47:39;10.35;;;4.40;;
66487;SDS011;53304;54.550;18.526;2023-05-24T07:50:07;6.97;;;3.92;;
66487;SDS011;53304;54.550;18.526;2023-05-24T07:52:32;8.73;;;4.38;;
66487;SDS011;53304;54.550;18.526;2023-05-24T07:55:00;8.93;;;4.20;;
66487;SDS011;53304;54.550;18.526;2023-05-24T07:57:26;7.07;;;3.65;;
66487;SDS011;53304;54.550;18.526;2023-05-24T07:59:54;7.63;;;3.63;;
66487;SDS011;53304;54.550;18.526;2023-05-24T08:02:22;7.18;;;3.95;;
66487;SDS011;53304;54.550;18.526;2023-05-24T08:04:50;7.68;;;3.53;;
66487;SDS011;53304;54.550;18.526;2023-05-24T08:07:16;7.32;;;3.90;;
66487;SDS011;53304;54.550;18.526;2023-05-24T08:09:45;6.82;;;3.85;;
66487;SDS011;53304;54.550;18.526;2023-05-24T08:12:13;7.53;;;3.55;;
66487;SDS011;53304;54.550;18.526;2023-05-24T08:14:38;7.03;;;3.75;;
66487;SDS011;53304;54.550;18.526;2023-05-24T08:17:04;7.90;;;3.58;;
66487;SDS011;53304;54.550;18.526;2023-05-24T08:19:29;8.45;;;3.70;;
66487;SDS011;53304;54.550;18.526;2023-05-24T08:22:02;6.60;;;3.50;;
66487;SDS011;53304;54.550;18.526;2023-05-24T08:24:30;6.38;;;3.67;;
66487;SDS011;53304;54.550;18.526;2023-05-24T08:26:56;5.93;;;3.15;;
66487;SDS011;53304;54.550;18.526;2023-05-24T08:29:22;6.30;;;3.50;;
66487;SDS011;53304;54.550;18.526;2023-05-24T08:31:48;6.13;;;3.50;;
66487;SDS011;53304;54.550;18.526;2023-05-24T08:34:16;6.50;;;3.15;;
66487;SDS011;53304;54.550;18.526;2023-05-24T08:36:41;5.40;;;3.30;;
66487;SDS011;53304;54.550;18.526;2023-05-24T08:39:08;8.80;;;3.50;;
66487;SDS011;53304;54.550;18.526;2023-05-24T08:41:34;6.63;;;3.72;;
66487;SDS011;53304;54.550;18.526;2023-05-24T08:44:01;7.15;;;3.33;;
66487;SDS011;53304;54.550;18.526;2023-05-24T08:46:29;5.95;;;3.10;;
66487;SDS011;53304;54.550;18.526;2023-05-24T08:48:55;9.05;;;3.40;;
66487;SDS011;53304;54.550;18.526;2023-05-24T08:51:21;7.05;;;3.50;;
66487;SDS011;53304;54.550;18.526;2023-05-24T08:53:48;5.20;;;3.25;;
66487;SDS011;53304;54.550;18.526;2023-05-24T08:56:15;6.47;;;3.28;;
66487;SDS011;53304;54.550;18.526;2023-05-24T08:58:42;7.00;;;3.20;;
66487;SDS011;53304;54.550;18.526;2023-05-24T09:01:07;7.53;;;3.42;;
66487;SDS011;53304;54.550;18.526;2023-05-24T09:03:35;6.13;;;3.20;;
66487;SDS011;53304;54.550;18.526;2023-05-24T09:06:01;6.30;;;3.42;;
66487;SDS011;53304;54.550;18.526;2023-05-24T09:08:27;5.60;;;3.00;;
66487;SDS011;53304;54.550;18.526;2023-05-24T09:10:53;6.70;;;3.25;;
66487;SDS011;53304;54.550;18.526;2023-05-24T09:13:21;7.03;;;3.40;;
66487;SDS011;53304;54.550;18.526;2023-05-24T09:15:49;5.35;;;3.20;;
66487;SDS011;53304;54.550;18.526;2023-05-24T09:18:14;7.15;;;3.25;;
66487;SDS011;53304;54.550;18.526;2023-05-24T09:20:40;5.88;;;3.10;;
66487;SDS011;53304;54.550;18.526;2023-05-24T09:23:08;5.22;;;3.10;;
66487;SDS011;53304;54.550;18.526;2023-05-24T09:25:33;5.55;;;3.30;;
66487;SDS011;53304;54.550;18.526;2023-05-24T09:28:00;6.72;;;3.38;;
66487;SDS011;53304;54.550;18.526;2023-05-24T09:30:30;7.50;;;3.60;;
66487;SDS011;53304;54.550;18.526;2023-05-24T09:32:56;5.50;;;3.30;;
66487;SDS011;53304;54.550;18.526;2023-05-24T09:35:23;6.53;;;2.92;;
66487;SDS011;53304;54.550;18.526;2023-05-24T09:37:55;6.97;;;3.50;;
66487;SDS011;53304;54.550;18.526;2023-05-24T09:40:22;6.07;;;3.25;;
66487;SDS011;53304;54.550;18.526;2023-05-24T09:42:47;5.13;;;3.20;;
66487;SDS011;53304;54.550;18.526;2023-05-24T09:45:15;6.28;;;3.22;;
66487;SDS011;53304;54.550;18.526;2023-05-24T09:47:41;6.28;;;3.33;;
66487;SDS011;53304;54.550;18.526;2023-05-24T09:50:15;9.13;;;3.78;;
66487;SDS011;53304;54.550;18.526;2023-05-24T09:52:41;5.57;;;3.20;;
66487;SDS011;53304;54.550;18.526;2023-05-24T09:57:36;7.22;;;3.38;;
66487;SDS011;53304;54.550;18.526;2023-05-24T10:00:04;7.18;;;3.35;;
66487;SDS011;53304;54.550;18.526;2023-05-24T10:02:38;6.10;;;3.67;;
66487;SDS011;53304;54.550;18.526;2023-05-24T10:05:03;6.22;;;3.60;;
66487;SDS011;53304;54.550;18.526;2023-05-24T10:07:32;4.70;;;3.15;;
66487;SDS011;53304;54.550;18.526;2023-05-24T10:10:00;6.10;;;3.47;;
66487;SDS011;53304;54.550;18.526;2023-05-24T10:12:26;6.60;;;3.58;;
66487;SDS011;53304;54.550;18.526;2023-05-24T10:14:57;5.55;;;3.50;;
66487;SDS011;53304;54.550;18.526;2023-05-24T10:17:25;6.68;;;3.60;;
66487;SDS011;53304;54.550;18.526;2023-05-24T10:19:54;6.45;;;3.60;;
66487;SDS011;53304;54.550;18.526;2023-05-24T10:22:19;7.13;;;3.58;;
66487;SDS011;53304;54.550;18.526;2023-05-24T10:24:49;6.85;;;3.65;;
66487;SDS011;53304;54.550;18.526;2023-05-24T10:27:21;5.20;;;3.50;;
66487;SDS011;53304;54.550;18.526;2023-05-24T10:29:52;7.80;;;3.85;;
66487;SDS011;53304;54.550;18.526;2023-05-24T10:32:23;6.32;;;4.07;;
66487;SDS011;53304;54.550;18.526;2023-05-24T10:34:50;7.90;;;3.92;;
66487;SDS011;53304;54.550;18.526;2023-05-24T10:37:20;8.32;;;3.90;;
66487;SDS011;53304;54.550;18.526;2023-05-24T10:39:48;8.10;;;4.43;;
66487;SDS011;53304;54.550;18.526;2023-05-24T10:42:13;6.00;;;3.53;;
66487;SDS011;53304;54.550;18.526;2023-05-24T10:44:41;6.03;;;4.20;;
66487;SDS011;53304;54.550;18.526;2023-05-24T10:47:07;6.72;;;4.10;;
66487;SDS011;53304;54.550;18.526;2023-05-24T10:49:34;7.90;;;3.95;;
66487;SDS011;53304;54.550;18.526;2023-05-24T10:52:01;6.68;;;3.78;;
66487;SDS011;53304;54.550;18.526;2023-05-24T10:54:35;6.45;;;4.10;;
66487;SDS011;53304;54.550;18.526;2023-05-24T10:57:03;7.38;;;4.00;;
66487;SDS011;53304;54.550;18.526;2023-05-24T10:59:37;5.78;;;3.60;;
66487;SDS011;53304;54.550;18.526;2023-05-24T11:02:07;6.78;;;3.75;;
66487;SDS011;53304;54.550;18.526;2023-05-24T11:04:41;6.10;;;3.90;;
66487;SDS011;53304;54.550;18.526;2023-05-24T11:07:10;5.68;;;3.85;;
66487;SDS011;53304;54.550;18.526;2023-05-24T11:09:37;7.65;;;4.20;;
66487;SDS011;53304;54.550;18.526;2023-05-24T11:12:23;6.10;;;3.90;;
66487;SDS011;53304;54.550;18.526;2023-05-24T11:15:02;7.85;;;3.80;;
66487;SDS011;53304;54.550;18.526;2023-05-24T11:17:31;6.43;;;3.78;;
66487;SDS011;53304;54.550;18.526;2023-05-24T11:20:36;7.13;;;3.80;;
66487;SDS011;53304;54.550;18.526;2023-05-24T11:23:05;6.75;;;3.75;;
66487;SDS011;53304;54.550;18.526;2023-05-24T11:25:35;6.93;;;3.97;;
66487;SDS011;53304;54.550;18.526;2023-05-24T11:28:02;7.00;;;4.03;;
66487;SDS011;53304;54.550;18.526;2023-05-24T11:30:33;7.97;;;4.30;;
66487;SDS011;53304;54.550;18.526;2023-05-24T11:32:58;6.30;;;4.10;;
66487;SDS011;53304;54.550;18.526;2023-05-24T11:35:26;6.03;;;3.80;;
66487;SDS011;53304;54.550;18.526;2023-05-24T11:37:55;6.82;;;4.05;;
66487;SDS011;53304;54.550;18.526;2023-05-24T11:40:24;6.05;;;4.20;;
66487;SDS011;53304;54.550;18.526;2023-05-24T11:42:51;9.05;;;4.30;;
66487;SDS011;53304;54.550;18.526;2023-05-24T11:45:17;7.10;;;4.07;;
66487;SDS011;53304;54.550;18.526;2023-05-24T11:47:47;8.00;;;4.25;;
66487;SDS011;53304;54.550;18.526;2023-05-24T11:50:16;6.20;;;3.92;;
66487;SDS011;53304;54.550;18.526;2023-05-24T11:52:50;7.20;;;4.00;;
66487;SDS011;53304;54.550;18.526;2023-05-24T11:55:22;6.72;;;4.28;;
66487;SDS011;53304;54.550;18.526;2023-05-24T11:57:53;7.65;;;4.53;;
66487;SDS011;53304;54.550;18.526;2023-05-24T12:00:23;7.78;;;4.30;;
66487;SDS011;53304;54.550;18.526;2023-05-24T12:02:49;6.00;;;4.05;;
66487;SDS011;53304;54.550;18.526;2023-05-24T12:05:25;8.23;;;4.25;;
66487;SDS011;53304;54.550;18.526;2023-05-24T12:08:02;6.38;;;4.18;;
66487;SDS011;53304;54.550;18.526;2023-05-24T12:10:38;6.90;;;4.47;;
66487;SDS011;53304;54.550;18.526;2023-05-24T12:13:17;8.35;;;4.80;;
66487;SDS011;53304;54.550;18.526;2023-05-24T12:15:48;7.68;;;4.35;;
66487;SDS011;53304;54.550;18.526;2023-05-24T12:18:23;7.57;;;4.30;;
66487;SDS011;53304;54.550;18.526;2023-05-24T12:23:26;7.90;;;4.47;;
66487;SDS011;53304;54.550;18.526;2023-05-24T12:26:00;7.22;;;4.40;;
66487;SDS011;53304;54.550;18.526;2023-05-24T12:28:34;7.18;;;4.57;;
66487;SDS011;53304;54.550;18.526;2023-05-24T12:31:00;6.10;;;4.20;;
66487;SDS011;53304;54.550;18.526;2023-05-24T12:33:27;7.10;;;4.70;;
66487;SDS011;53304;54.550;18.526;2023-05-24T12:35:55;7.60;;;4.68;;
66487;SDS011;53304;54.550;18.526;2023-05-24T12:38:22;8.27;;;4.50;;
66487;SDS011;53304;54.550;18.526;2023-05-24T12:40:49;7.80;;;4.60;;
66487;SDS011;53304;54.550;18.526;2023-05-24T12:43:15;7.65;;;4.28;;
66487;SDS011;53304;54.550;18.526;2023-05-24T12:45:44;6.82;;;4.80;;
66487;SDS011;53304;54.550;18.526;2023-05-24T12:48:11;7.05;;;4.55;;
66487;SDS011;53304;54.550;18.526;2023-05-24T12:50:39;7.10;;;4.57;;
66487;SDS011;53304;54.550;18.526;2023-05-24T12:53:05;7.82;;;4.50;;
66487;SDS011;53304;54.550;18.526;2023-05-24T12:55:32;7.65;;;4.50;;
66487;SDS011;53304;54.550;18.526;2023-05-24T12:57:58;8.88;;;4.93;;
66487;SDS011;53304;54.550;18.526;2023-05-24T13:00:26;7.97;;;4.57;;
66487;SDS011;53304;54.550;18.526;2023-05-24T13:02:52;8.82;;;5.07;;
66487;SDS011;53304;54.550;18.526;2023-05-24T13:05:21;7.60;;;4.93;;
66487;SDS011;53304;54.550;18.526;2023-05-24T13:07:48;7.85;;;4.82;;
66487;SDS011;53304;54.550;18.526;2023-05-24T13:10:14;6.13;;;4.63;;
66487;SDS011;53304;54.550;18.526;2023-05-24T13:12:43;7.95;;;4.63;;
66487;SDS011;53304;54.550;18.526;2023-05-24T13:15:09;8.82;;;4.72;;
66487;SDS011;53304;54.550;18.526;2023-05-24T13:17:35;6.78;;;4.55;;
66487;SDS011;53304;54.550;18.526;2023-05-24T13:20:04;7.15;;;4.57;;
66487;SDS011;53304;54.550;18.526;2023-05-24T13:22:35;7.75;;;4.40;;
66487;SDS011;53304;54.550;18.526;2023-05-24T13:25:02;7.22;;;4.82;;
66487;SDS011;53304;54.550;18.526;2023-05-24T13:27:28;7.25;;;4.78;;
66487;SDS011;53304;54.550;18.526;2023-05-24T13:29:54;7.05;;;4.60;;
66487;SDS011;53304;54.550;18.526;2023-05-24T13:32:20;8.02;;;4.85;;
66487;SDS011;53304;54.550;18.526;2023-05-24T13:34:45;6.18;;;4.35;;
66487;SDS011;53304;54.550;18.526;2023-05-24T13:37:11;8.63;;;5.13;;
66487;SDS011;53304;54.550;18.526;2023-05-24T13:39:37;11.25;;;4.90;;
66487;SDS011;53304;54.550;18.526;2023-05-24T13:42:03;8.43;;;4.65;;
66487;SDS011;53304;54.550;18.526;2023-05-24T13:44:29;8.55;;;5.18;;
66487;SDS011;53304;54.550;18.526;2023-05-24T13:46:56;9.10;;;4.80;;
66487;SDS011;53304;54.550;18.526;2023-05-24T13:49:24;8.48;;;4.80;;
66487;SDS011;53304;54.550;18.526;2023-05-24T13:51:51;7.40;;;4.60;;
66487;SDS011;53304;54.550;18.526;2023-05-24T13:54:21;9.73;;;5.03;;
66487;SDS011;53304;54.550;18.526;2023-05-24T13:56:46;10.85;;;4.55;;
66487;SDS011;53304;54.550;18.526;2023-05-24T13:59:13;8.75;;;4.68;;
66487;SDS011;53304;54.550;18.526;2023-05-24T14:01:42;7.55;;;4.65;;
66487;SDS011;53304;54.550;18.526;2023-05-24T14:04:09;6.60;;;4.70;;
66487;SDS011;53304;54.550;18.526;2023-05-24T14:06:35;9.07;;;4.90;;
66487;SDS011;53304;54.550;18.526;2023-05-24T14:09:03;7.55;;;4.80;;
66487;SDS011;53304;54.550;18.526;2023-05-24T14:11:32;6.80;;;4.28;;
66487;SDS011;53304;54.550;18.526;2023-05-24T14:13:58;6.22;;;4.22;;
66487;SDS011;53304;54.550;18.526;2023-05-24T14:16:26;8.98;;;4.78;;
66487;SDS011;53304;54.550;18.526;2023-05-24T14:18:54;7.55;;;4.82;;
66487;SDS011;53304;54.550;18.526;2023-05-24T14:21:29;9.70;;;4.80;;
66487;SDS011;53304;54.550;18.526;2023-05-24T14:23:57;7.40;;;4.43;;
66487;SDS011;53304;54.550;18.526;2023-05-24T14:26:22;7.32;;;4.45;;
66487;SDS011;53304;54.550;18.526;2023-05-24T14:28:50;6.85;;;4.30;;
66487;SDS011;53304;54.550;18.526;2023-05-24T14:31:18;10.13;;;4.80;;
66487;SDS011;53304;54.550;18.526;2023-05-24T14:33:46;6.72;;;4.30;;
66487;SDS011;53304;54.550;18.526;2023-05-24T14:36:13;7.88;;;4.80;;
66487;SDS011;53304;54.550;18.526;2023-05-24T14:38:41;7.18;;;4.63;;
66487;SDS011;53304;54.550;18.526;2023-05-24T14:41:06;7.07;;;4.40;;
66487;SDS011;53304;54.550;18.526;2023-05-24T14:43:33;7.10;;;4.60;;
66487;SDS011;53304;54.550;18.526;2023-05-24T14:46:01;7.32;;;4.32;;
66487;SDS011;53304;54.550;18.526;2023-05-24T14:48:26;7.05;;;4.35;;
66487;SDS011;53304;54.550;18.526;2023-05-24T14:50:56;8.60;;;4.47;;
66487;SDS011;53304;54.550;18.526;2023-05-24T14:53:22;7.45;;;4.28;;
66487;SDS011;53304;54.550;18.526;2023-05-24T14:55:48;6.53;;;4.60;;
66487;SDS011;53304;54.550;18.526;2023-05-24T14:58:14;7.78;;;4.50;;